createdAt,value
2023-03-24T00:02:08.665Z,12.37
2023-03-24T00:04:36.905Z,12.31
2023-03-24T00:07:05.842Z,12.21
2023-03-24T00:09:34.120Z,12.12
2023-03-24T00:12:02.099Z,12.05
2023-03-24T00:14:38.792Z,12.03
2023-03-24T00:17:09.528Z,12.00
2023-03-24T00:19:38.605Z,12.02
2023-03-24T00:22:08.220Z,12.00
2023-03-24T00:24:36.554Z,12.01
2023-03-24T00:27:04.638Z,12.03
2023-03-24T00:29:36.211Z,12.05
2023-03-24T00:32:04.817Z,12.04
2023-03-24T00:34:34.389Z,12.12
2023-03-24T00:37:02.561Z,12.14
2023-03-24T00:39:30.622Z,12.17
2023-03-24T00:42:01.889Z,12.16
2023-03-24T00:44:30.058Z,12.13
2023-03-24T00:46:58.195Z,12.10
2023-03-24T00:49:43.055Z,12.12
2023-03-24T00:52:20.767Z,12.10
2023-03-24T00:54:55.441Z,12.07
2023-03-24T00:57:23.457Z,12.03
2023-03-24T00:59:54.580Z,12.03
2023-03-24T01:02:25.007Z,12.06
2023-03-24T01:04:58.220Z,12.10
2023-03-24T01:07:27.009Z,12.09
2023-03-24T01:09:57.955Z,12.04
2023-03-24T01:12:32.125Z,12.00
2023-03-24T01:15:01.205Z,12.02
2023-03-24T01:17:31.084Z,12.00
2023-03-24T01:19:59.132Z,11.96
2023-03-24T01:22:29.029Z,11.98
2023-03-24T01:24:58.020Z,11.97
2023-03-24T01:27:26.084Z,11.94
2023-03-24T01:29:59.900Z,11.90
2023-03-24T01:32:29.525Z,11.89
2023-03-24T01:34:57.918Z,11.90
2023-03-24T01:37:26.272Z,11.87
2023-03-24T01:39:54.220Z,11.84
2023-03-24T01:42:24.175Z,11.84
2023-03-24T01:44:55.123Z,11.82
2023-03-24T01:47:23.065Z,11.84
2023-03-24T01:49:57.151Z,11.83
2023-03-24T01:52:32.770Z,11.80
2023-03-24T01:55:14.286Z,11.85
2023-03-24T01:57:44.682Z,11.90
2023-03-24T02:00:15.165Z,11.93
2023-03-24T02:03:08.014Z,11.91
2023-03-24T02:05:41.090Z,11.92
2023-03-24T02:08:39.212Z,11.98
2023-03-24T02:11:07.732Z,11.95
2023-03-24T02:13:43.575Z,11.87
2023-03-24T02:16:15.112Z,11.87
2023-03-24T02:19:25.090Z,11.86
2023-03-24T02:22:35.342Z,11.83
2023-03-24T02:25:16.529Z,11.86
2023-03-24T02:28:02.864Z,11.94
2023-03-24T02:31:08.740Z,11.97
2023-03-24T02:34:07.384Z,11.99
2023-03-24T02:37:00.575Z,11.95
2023-03-24T02:39:56.962Z,11.83
2023-03-24T02:42:41.017Z,11.76
2023-03-24T02:45:24.618Z,11.77
2023-03-24T02:48:05.551Z,11.80
2023-03-24T02:50:58.438Z,11.81
2023-03-24T02:53:50.068Z,11.92
2023-03-24T02:56:58.579Z,12.00
2023-03-24T02:59:45.049Z,12.10
2023-03-24T03:03:12.680Z,12.15
2023-03-24T03:05:53.919Z,12.26
2023-03-24T03:08:24.485Z,12.31
2023-03-24T03:10:52.620Z,12.28
2023-03-24T03:13:28.596Z,12.22
2023-03-24T03:15:58.972Z,12.20
2023-03-24T03:18:31.191Z,12.16
2023-03-24T03:21:04.684Z,12.13
2023-03-24T03:23:41.353Z,12.13
2023-03-24T03:26:12.512Z,12.20
2023-03-24T03:28:50.263Z,12.27
2023-03-24T03:31:23.964Z,12.21
2023-03-24T03:33:59.916Z,12.13
2023-03-24T03:36:30.355Z,12.07
2023-03-24T03:39:16.330Z,11.98
2023-03-24T03:41:45.735Z,11.92
2023-03-24T03:44:14.257Z,11.87
2023-03-24T03:46:43.498Z,11.96
2023-03-24T03:49:13.716Z,12.05
2023-03-24T03:51:47.544Z,12.04
2023-03-24T03:54:15.549Z,12.10
2023-03-24T03:56:46.758Z,12.22
2023-03-24T03:59:39.073Z,12.22
2023-03-24T04:02:17.162Z,12.25
2023-03-24T04:05:05.230Z,12.29
2023-03-24T04:08:18.851Z,12.31
2023-03-24T04:11:26.180Z,12.20
2023-03-24T04:14:37.980Z,12.15
2023-03-24T04:17:39.281Z,12.12
2023-03-24T04:20:17.073Z,12.15
2023-03-24T04:23:26.522Z,12.21
2023-03-24T04:26:26.780Z,12.20
2023-03-24T04:29:18.298Z,12.09
2023-03-24T04:31:54.086Z,12.03
2023-03-24T04:34:26.184Z,12.05
2023-03-24T04:37:12.545Z,12.12
2023-03-24T04:40:13.233Z,12.31
2023-03-24T04:42:46.973Z,12.35
2023-03-24T04:45:15.437Z,12.37
2023-03-24T04:48:04.759Z,12.50
2023-03-24T04:50:51.488Z,12.50
2023-03-24T04:53:23.829Z,12.44
2023-03-24T04:56:36.684Z,12.41
2023-03-24T04:59:13.043Z,12.32
2023-03-24T05:01:42.031Z,12.28
2023-03-24T05:04:41.918Z,12.32
2023-03-24T05:07:29.291Z,12.35
2023-03-24T05:09:59.712Z,12.41
2023-03-24T05:12:35.617Z,12.43
2023-03-24T05:15:28.481Z,12.39
2023-03-24T05:18:03.795Z,12.42
2023-03-24T05:20:32.320Z,12.44
2023-03-24T05:23:08.505Z,12.48
2023-03-24T05:25:36.470Z,12.58
2023-03-24T05:28:05.694Z,12.75
2023-03-24T05:30:33.994Z,12.91
2023-03-24T05:33:12.181Z,12.99
2023-03-24T05:35:40.943Z,13.03
2023-03-24T05:38:13.486Z,13.07
2023-03-24T05:40:43.272Z,13.07
2023-03-24T05:43:14.689Z,13.02
2023-03-24T05:45:50.076Z,13.08
2023-03-24T05:48:29.227Z,13.04
2023-03-24T05:53:28.616Z,13.23
2023-03-24T05:56:26.236Z,13.35
2023-03-24T05:59:14.876Z,13.44
2023-03-24T06:02:01.929Z,13.70
2023-03-24T06:04:49.297Z,13.87
2023-03-24T06:07:22.253Z,14.08
2023-03-24T06:09:52.928Z,14.37
2023-03-24T06:12:23.493Z,14.80
2023-03-24T06:15:02.410Z,15.28
2023-03-24T06:17:34.003Z,15.54
2023-03-24T06:20:15.019Z,15.63
2023-03-24T06:22:59.255Z,15.72
2023-03-24T06:25:30.264Z,15.83
2023-03-24T06:28:20.819Z,15.81
2023-03-24T06:30:49.684Z,15.67
2023-03-24T06:33:26.013Z,15.62
2023-03-24T06:35:55.119Z,15.54
2023-03-24T06:38:23.712Z,15.43
2023-03-24T06:40:52.381Z,15.34
2023-03-24T06:43:20.424Z,15.26
2023-03-24T06:45:52.996Z,15.14
2023-03-24T06:48:24.266Z,15.02
2023-03-24T06:50:55.149Z,14.95
2023-03-24T06:53:25.967Z,14.92
2023-03-24T06:55:54.222Z,14.95
2023-03-24T06:58:24.091Z,14.91
2023-03-24T07:01:05.995Z,14.95
2023-03-24T07:04:04.813Z,15.01
2023-03-24T07:09:32.744Z,14.91
2023-03-24T07:12:04.980Z,14.90
2023-03-24T07:14:34.391Z,14.93
2023-03-24T07:17:02.675Z,14.98
2023-03-24T07:19:40.560Z,14.95
2023-03-24T07:22:47.898Z,14.99
2023-03-24T07:25:41.244Z,14.94
2023-03-24T07:28:20.650Z,14.85
2023-03-24T07:30:50.213Z,14.80
2023-03-24T07:33:21.071Z,14.82
2023-03-24T07:35:49.458Z,14.86
2023-03-24T07:38:21.490Z,14.83
2023-03-24T07:40:51.029Z,14.85
2023-03-24T07:43:19.141Z,14.91
2023-03-24T07:46:02.396Z,14.96
2023-03-24T07:48:32.936Z,14.93
2023-03-24T07:51:03.100Z,14.91
2023-03-24T07:53:53.913Z,14.92
2023-03-24T07:56:27.705Z,15.02
2023-03-24T07:58:57.796Z,15.04
2023-03-24T08:01:57.814Z,15.00
2023-03-24T08:04:42.976Z,15.03
2023-03-24T08:07:30.382Z,15.21
2023-03-24T08:09:58.385Z,15.45
2023-03-24T08:12:27.512Z,15.51
2023-03-24T08:14:55.715Z,15.53
2023-03-24T08:17:24.438Z,15.57
2023-03-24T08:19:59.494Z,15.60
2023-03-24T08:22:30.369Z,15.55
2023-03-24T08:24:58.319Z,15.45
2023-03-24T08:27:29.003Z,15.33
2023-03-24T08:29:57.203Z,15.24
2023-03-24T08:32:25.490Z,15.22
2023-03-24T08:34:54.403Z,15.26
2023-03-24T08:37:22.427Z,15.34
2023-03-24T08:39:51.408Z,15.39
2023-03-24T08:42:19.506Z,15.37
2023-03-24T08:44:49.915Z,15.30
2023-03-24T08:47:18.530Z,15.24
2023-03-24T08:49:46.949Z,15.24
2023-03-24T08:52:16.759Z,15.35
2023-03-24T08:54:45.273Z,15.50
2023-03-24T08:57:13.381Z,15.55
2023-03-24T08:59:41.634Z,15.57
2023-03-24T09:02:11.751Z,15.63
2023-03-24T09:04:43.050Z,15.64
2023-03-24T09:07:11.908Z,15.65
2023-03-24T09:09:40.226Z,15.70
2023-03-24T09:12:09.932Z,15.69
2023-03-24T09:14:38.476Z,15.71
2023-03-24T09:17:07.029Z,15.82
2023-03-24T09:19:35.322Z,15.87
2023-03-24T09:22:03.532Z,15.86
2023-03-24T09:24:32.101Z,15.97
2023-03-24T09:27:00.770Z,16.15
2023-03-24T09:29:30.187Z,16.32
2023-03-24T09:32:04.968Z,16.54
2023-03-24T09:34:33.876Z,16.70
2023-03-24T09:37:02.056Z,16.76
2023-03-24T09:39:31.557Z,16.82
2023-03-24T09:42:01.381Z,16.91
2023-03-24T09:44:43.580Z,16.97
2023-03-24T09:47:59.352Z,16.98
2023-03-24T09:50:29.629Z,17.00
2023-03-24T09:53:00.943Z,17.04
2023-03-24T09:55:29.722Z,17.07
2023-03-24T09:58:04.032Z,17.09
2023-03-24T10:00:34.649Z,17.00
2023-03-24T10:03:21.209Z,16.99
2023-03-24T10:06:02.095Z,17.25
2023-03-24T10:08:50.598Z,17.48
2023-03-24T10:11:21.704Z,17.57
2023-03-24T10:14:25.638Z,17.60
2023-03-24T10:16:58.850Z,17.68
2023-03-24T10:19:45.593Z,17.83
2023-03-24T10:22:29.685Z,18.02
2023-03-24T10:25:06.652Z,18.15
2023-03-24T10:27:55.362Z,18.32
2023-03-24T10:30:29.403Z,18.38
2023-03-24T10:32:58.626Z,18.42
2023-03-24T10:35:29.937Z,18.58
2023-03-24T10:37:59.505Z,18.79
2023-03-24T10:40:33.540Z,19.04
2023-03-24T10:43:06.662Z,19.32
2023-03-24T10:45:44.314Z,19.48
2023-03-24T10:48:14.281Z,19.68
2023-03-24T10:50:44.703Z,19.86
2023-03-24T10:53:19.866Z,19.99
2023-03-24T10:55:48.377Z,20.10
2023-03-24T10:58:37.558Z,20.19
2023-03-24T11:01:27.321Z,20.21
2023-03-24T11:04:05.555Z,20.11
2023-03-24T11:06:34.204Z,19.94
2023-03-24T11:09:28.569Z,19.86
2023-03-24T11:11:59.825Z,19.89
2023-03-24T11:14:28.962Z,19.85
2023-03-24T11:17:11.667Z,19.84
2023-03-24T11:19:40.031Z,19.87
2023-03-24T11:22:09.918Z,19.95
2023-03-24T11:24:39.041Z,20.00
2023-03-24T11:27:07.757Z,20.06
2023-03-24T11:29:39.244Z,20.12
2023-03-24T11:32:16.817Z,20.26
2023-03-24T11:34:46.964Z,20.32
2023-03-24T11:37:22.319Z,20.30
2023-03-24T11:40:21.337Z,20.19
2023-03-24T11:43:00.890Z,20.05
2023-03-24T11:45:39.228Z,19.90
2023-03-24T11:48:26.976Z,19.83
2023-03-24T11:50:56.407Z,19.84
2023-03-24T11:53:30.882Z,19.91
2023-03-24T11:56:17.202Z,20.07
2023-03-24T11:58:47.521Z,20.49
2023-03-24T12:01:22.301Z,20.84
2023-03-24T12:03:59.529Z,21.18
2023-03-24T12:06:52.503Z,21.50
2023-03-24T12:09:39.843Z,21.78
2023-03-24T12:12:30.765Z,21.97
2023-03-24T12:15:27.170Z,22.12
2023-03-24T12:18:09.651Z,22.22
2023-03-24T12:20:58.493Z,22.30
2023-03-24T12:23:38.350Z,22.24
2023-03-24T12:26:17.493Z,22.06
2023-03-24T12:29:17.754Z,21.79
2023-03-24T12:32:04.754Z,21.53
2023-03-24T12:34:43.351Z,21.35
2023-03-24T12:37:20.935Z,21.26
2023-03-24T12:39:59.811Z,21.22
2023-03-24T12:42:31.957Z,21.18
2023-03-24T12:45:05.141Z,21.09
2023-03-24T12:48:09.618Z,21.00
2023-03-24T12:51:07.182Z,20.78
2023-03-24T12:53:54.049Z,20.61
2023-03-24T12:56:33.768Z,20.60
2023-03-24T12:59:23.954Z,20.62
2023-03-24T13:01:56.186Z,20.59
2023-03-24T13:04:29.550Z,20.57
2023-03-24T13:07:14.669Z,20.58
2023-03-24T13:09:57.193Z,20.68
2023-03-24T13:12:33.327Z,20.64
2023-03-24T13:15:10.282Z,20.59
2023-03-24T13:17:40.687Z,20.58
2023-03-24T13:20:13.802Z,20.71
2023-03-24T13:22:42.324Z,20.88
2023-03-24T13:25:36.430Z,21.00
2023-03-24T13:28:07.214Z,20.88
2023-03-24T13:30:41.719Z,20.71
2023-03-24T13:33:26.560Z,20.63
2023-03-24T13:36:21.638Z,20.52
2023-03-24T13:38:54.785Z,20.45
2023-03-24T13:41:24.711Z,20.41
2023-03-24T13:44:17.753Z,20.35
2023-03-24T13:47:15.312Z,20.28
2023-03-24T13:49:53.849Z,20.26
2023-03-24T13:52:35.293Z,20.29
2023-03-24T13:55:27.570Z,20.26
2023-03-24T13:57:57.318Z,20.21
2023-03-24T14:00:26.660Z,20.16
2023-03-24T14:02:56.765Z,20.09
2023-03-24T14:05:44.139Z,20.03
2023-03-24T14:08:16.153Z,20.00
2023-03-24T14:10:48.456Z,19.96
2023-03-24T14:13:16.624Z,19.94
2023-03-24T14:15:58.498Z,19.93
2023-03-24T14:18:29.335Z,19.88
2023-03-24T14:20:57.657Z,19.80
2023-03-24T14:23:43.468Z,19.74
2023-03-24T14:26:16.555Z,19.75
2023-03-24T14:28:46.751Z,19.75
2023-03-24T14:31:30.959Z,19.72
2023-03-24T14:34:05.978Z,19.65
2023-03-24T14:36:42.089Z,19.54
2023-03-24T14:39:24.022Z,19.46
2023-03-24T14:41:52.807Z,19.42
2023-03-24T14:44:55.406Z,19.32
2023-03-24T14:47:31.123Z,19.24
2023-03-24T14:50:01.241Z,19.18
2023-03-24T14:52:43.592Z,19.19
2023-03-24T14:55:21.851Z,19.25
2023-03-24T14:58:23.931Z,19.27
2023-03-24T15:01:07.273Z,19.29
2023-03-24T15:03:49.775Z,19.24
2023-03-24T15:06:23.474Z,19.16
2023-03-24T15:09:14.004Z,19.08
2023-03-24T15:11:42.161Z,19.00
2023-03-24T15:14:16.379Z,18.97
2023-03-24T15:16:51.844Z,18.96
2023-03-24T15:19:25.662Z,18.94
2023-03-24T15:22:11.693Z,18.90
2023-03-24T15:24:43.044Z,18.87
2023-03-24T15:27:33.732Z,18.88
2023-03-24T15:30:01.893Z,18.85
2023-03-24T15:32:39.126Z,18.78
2023-03-24T15:35:08.895Z,18.78
2023-03-24T15:37:42.932Z,18.81
2023-03-24T15:40:27.152Z,18.78
2023-03-24T15:42:57.750Z,18.64
2023-03-24T15:45:31.181Z,18.58
2023-03-24T15:48:08.337Z,18.58
2023-03-24T15:50:38.817Z,18.58
2023-03-24T15:53:24.996Z,18.55
2023-03-24T15:56:04.249Z,18.54
2023-03-24T15:58:45.827Z,18.51
2023-03-24T16:01:20.081Z,18.50
2023-03-24T16:03:48.858Z,18.51
2023-03-24T16:06:30.889Z,18.52
2023-03-24T16:09:00.390Z,18.47
2023-03-24T16:11:30.111Z,18.39
2023-03-24T16:14:22.012Z,18.33
2023-03-24T16:16:54.210Z,18.28
2023-03-24T16:19:22.466Z,18.27
2023-03-24T16:21:51.103Z,18.30
2023-03-24T16:24:19.014Z,18.33
2023-03-24T16:26:47.313Z,18.25
2023-03-24T16:29:21.942Z,18.21
2023-03-24T16:31:51.913Z,18.15
2023-03-24T16:34:21.787Z,18.04
2023-03-24T16:36:52.291Z,17.98
2023-03-24T16:39:25.116Z,17.94
2023-03-24T16:41:54.215Z,17.94
2023-03-24T16:44:22.638Z,17.92
2023-03-24T16:46:51.920Z,17.89
2023-03-24T16:49:20.104Z,17.86
2023-03-24T16:51:48.484Z,17.91
2023-03-24T16:54:24.077Z,17.98
2023-03-24T16:56:52.322Z,18.06
2023-03-24T16:59:20.885Z,18.13
2023-03-24T17:01:52.296Z,18.13
2023-03-24T17:04:22.353Z,18.05
2023-03-24T17:06:55.368Z,17.98
2023-03-24T17:09:24.353Z,17.95
2023-03-24T17:11:53.891Z,17.86
2023-03-24T17:14:23.842Z,17.79
2023-03-24T17:16:53.787Z,17.67
2023-03-24T17:19:22.788Z,17.58
2023-03-24T17:21:58.796Z,17.56
2023-03-24T17:24:28.343Z,17.57
2023-03-24T17:26:56.706Z,17.50
2023-03-24T17:29:24.928Z,17.42
2023-03-24T17:31:53.853Z,17.38
2023-03-24T17:34:28.807Z,17.31
2023-03-24T17:36:56.974Z,17.24
2023-03-24T17:39:25.000Z,17.22
2023-03-24T17:42:01.322Z,17.22
2023-03-24T17:44:29.712Z,17.19
2023-03-24T17:46:59.630Z,17.15
2023-03-24T17:49:47.526Z,17.13
2023-03-24T17:52:16.213Z,17.08
2023-03-24T17:54:45.885Z,17.06
2023-03-24T17:57:14.606Z,17.14
2023-03-24T17:59:44.112Z,17.13
2023-03-24T18:02:12.986Z,17.08
2023-03-24T18:04:41.375Z,17.07
2023-03-24T18:10:11.348Z,17.02
2023-03-24T18:12:39.653Z,16.99
2023-03-24T18:15:09.363Z,16.91
2023-03-24T18:17:37.596Z,16.84
2023-03-24T18:20:11.279Z,16.81
2023-03-24T18:22:41.801Z,16.93
2023-03-24T18:25:11.234Z,17.13
2023-03-24T18:27:45.754Z,17.31
2023-03-24T18:30:16.281Z,17.44
2023-03-24T18:32:44.590Z,17.47
2023-03-24T18:35:18.519Z,17.45
2023-03-24T18:37:46.481Z,17.41
2023-03-24T18:40:15.938Z,17.38
2023-03-24T18:42:45.086Z,17.35
2023-03-24T18:45:18.549Z,17.30
2023-03-24T18:47:47.991Z,17.33
2023-03-24T18:50:16.725Z,17.44
2023-03-24T18:52:49.872Z,17.50
2023-03-24T18:55:18.618Z,17.46
2023-03-24T18:57:46.783Z,17.33
2023-03-24T19:00:15.467Z,17.20
2023-03-24T19:02:44.518Z,17.11
2023-03-24T19:05:14.248Z,16.97
2023-03-24T19:07:42.952Z,16.84
2023-03-24T19:10:11.847Z,16.83
2023-03-24T19:12:40.029Z,16.91
2023-03-24T19:15:13.568Z,16.89
2023-03-24T19:17:42.681Z,16.79
2023-03-24T19:20:11.827Z,16.74
2023-03-24T19:22:41.745Z,16.65
2023-03-24T19:25:09.937Z,16.55
2023-03-24T19:27:47.821Z,16.48
2023-03-24T19:30:17.247Z,16.40
2023-03-24T19:32:48.086Z,16.38
2023-03-24T19:35:21.176Z,16.41
2023-03-24T19:37:49.626Z,16.47
2023-03-24T19:40:23.124Z,16.62
2023-03-24T19:42:51.191Z,16.73
2023-03-24T19:45:20.197Z,16.84
2023-03-24T19:47:48.337Z,16.92
2023-03-24T19:50:17.603Z,16.94
2023-03-24T19:52:50.644Z,16.89
2023-03-24T19:55:19.770Z,16.83
2023-03-24T19:57:47.839Z,16.88
2023-03-24T20:00:16.915Z,16.97
2023-03-24T20:02:45.843Z,16.97
2023-03-24T20:05:14.904Z,16.94
2023-03-24T20:07:43.694Z,16.91
2023-03-24T20:10:11.866Z,16.79
2023-03-24T20:12:45.381Z,16.60
2023-03-24T20:15:15.505Z,16.41
2023-03-24T20:17:43.974Z,16.21
2023-03-24T20:20:15.755Z,16.06
2023-03-24T20:22:48.764Z,16.09
2023-03-24T20:25:18.387Z,16.08
2023-03-24T20:27:47.632Z,15.96
2023-03-24T20:30:20.167Z,15.84
2023-03-24T20:32:48.879Z,15.76
2023-03-24T20:35:18.478Z,15.75
2023-03-24T20:37:47.224Z,15.84
2023-03-24T20:40:15.639Z,16.00
2023-03-24T20:42:47.095Z,16.12
2023-03-24T20:45:15.504Z,16.20
2023-03-24T20:47:44.362Z,16.23
2023-03-24T20:50:12.539Z,16.27
2023-03-24T20:52:47.458Z,16.34
2023-03-24T20:55:36.053Z,16.32
2023-03-24T20:58:08.418Z,16.27
2023-03-24T21:00:42.035Z,16.18
2023-03-24T21:03:11.882Z,16.11
2023-03-24T21:05:39.949Z,16.04
2023-03-24T21:08:08.125Z,15.97
2023-03-24T21:10:36.655Z,15.92
2023-03-24T21:13:08.617Z,15.81
2023-03-24T21:15:44.268Z,15.70
2023-03-24T21:18:18.584Z,15.60
2023-03-24T21:20:57.440Z,15.54
2023-03-24T21:23:25.651Z,15.56
2023-03-24T21:25:56.435Z,15.53
2023-03-24T21:28:28.210Z,15.49
2023-03-24T21:30:58.603Z,15.42
2023-03-24T21:33:26.676Z,15.48
2023-03-24T21:35:55.707Z,15.61
2023-03-24T21:38:24.195Z,15.68
2023-03-24T21:40:58.990Z,15.76
2023-03-24T21:43:29.326Z,15.81
2023-03-24T21:45:57.697Z,15.79
2023-03-24T21:48:28.252Z,15.74
2023-03-24T21:50:56.707Z,15.70
2023-03-24T21:53:26.246Z,15.66
2023-03-24T21:55:55.751Z,15.66
2023-03-24T21:58:24.420Z,15.62
2023-03-24T22:00:52.481Z,15.55
2023-03-24T22:03:22.948Z,15.56
2023-03-24T22:05:51.722Z,15.54
2023-03-24T22:08:22.764Z,15.57
2023-03-24T22:10:54.386Z,15.67
2023-03-24T22:13:27.577Z,15.64
2023-03-24T22:15:59.622Z,15.53
2023-03-24T22:18:28.760Z,15.45
2023-03-24T22:21:06.920Z,15.38
2023-03-24T22:23:38.842Z,15.31
2023-03-24T22:26:11.750Z,15.27
2023-03-24T22:28:40.584Z,15.31
2023-03-24T22:31:10.317Z,15.44
2023-03-24T22:33:38.552Z,15.67
2023-03-24T22:36:08.158Z,15.77
2023-03-24T22:38:36.319Z,15.83
2023-03-24T22:41:12.109Z,15.85
2023-03-24T22:43:42.089Z,15.87
2023-03-24T22:46:10.690Z,15.81
2023-03-24T22:48:40.314Z,15.75
2023-03-24T22:51:09.657Z,15.76
2023-03-24T22:53:42.471Z,15.75
2023-03-24T22:56:12.010Z,15.72
2023-03-24T22:58:40.329Z,15.78
2023-03-24T23:01:10.605Z,15.80
2023-03-24T23:03:39.032Z,15.78
2023-03-24T23:06:15.991Z,15.70
2023-03-24T23:08:44.865Z,15.62
2023-03-24T23:11:14.259Z,15.58
2023-03-24T23:14:06.782Z,15.56
2023-03-24T23:16:38.030Z,15.52
2023-03-24T23:19:09.599Z,15.54
2023-03-24T23:21:39.394Z,15.54
2023-03-24T23:24:07.592Z,15.57
2023-03-24T23:26:39.361Z,15.52
2023-03-24T23:29:07.590Z,15.44
2023-03-24T23:31:37.028Z,15.43
2023-03-24T23:34:11.342Z,15.44
2023-03-24T23:36:49.922Z,15.39
2023-03-24T23:39:18.391Z,15.32
2023-03-24T23:41:46.508Z,15.29
2023-03-24T23:44:15.108Z,15.39
2023-03-24T23:46:45.547Z,15.45
2023-03-24T23:49:13.610Z,15.44
2023-03-24T23:51:41.686Z,15.35
2023-03-24T23:54:09.615Z,15.31
2023-03-24T23:56:40.627Z,15.26
2023-03-24T23:59:09.990Z,15.27
